Time;durP1;ratioP1;P1;durP2;ratioP2;P2;SDS_P1;SDS_P2;PMS_P1;PMS_P2;Temp;Humidity;BMP_temperature;BMP_pressure;BME280_temperature;BME280_humidity;BME280_pressure;Samples;Min_cycle;Max_cycle;Signal;HPM_P1;HPM_P2
2023/11/05 00:01:20;;;;;;;9.05;1.63;;;9.00;99.90;;;;;;4994517;28;20046;-72
2023/11/05 00:03:46;;;;;;;11.35;1.10;;;9.00;99.90;;;;;;4976905;28;20050;-72
2023/11/05 00:06:13;;;;;;;10.50;1.45;;;8.90;99.90;;;;;;4994046;28;20037;-72
2023/11/05 00:08:39;;;;;;;9.52;1.52;;;8.90;99.90;;;;;;4995025;28;20033;-72
2023/11/05 00:11:06;;;;;;;8.60;0.88;;;8.90;99.90;;;;;;4995325;28;20045;-72
2023/11/05 00:13:32;;;;;;;6.40;1.10;;;8.90;99.90;;;;;;4974233;28;20413;-72
2023/11/05 00:15:58;;;;;;;10.30;1.70;;;8.90;99.90;;;;;;4993431;28;20034;-72
2023/11/05 00:18:25;;;;;;;9.77;1.27;;;9.00;99.90;;;;;;4995345;28;20034;-72
2023/11/05 00:20:54;;;;;;;11.02;2.05;;;9.00;99.90;;;;;;4995340;28;20036;-72
2023/11/05 00:23:20;;;;;;;11.52;1.23;;;9.10;99.90;;;;;;4993523;28;20038;-72
2023/11/05 00:25:46;;;;;;;11.30;1.77;;;9.20;99.90;;;;;;4993313;28;20038;-72
2023/11/05 00:28:13;;;;;;;10.77;1.40;;;9.30;99.90;;;;;;4993566;28;20037;-72
2023/11/05 00:30:39;;;;;;;8.27;0.80;;;9.30;99.90;;;;;;4975764;28;20034;-73
2023/11/05 00:33:06;;;;;;;12.60;1.27;;;9.30;99.90;;;;;;4978523;28;20045;-73
2023/11/05 00:35:32;;;;;;;12.10;2.13;;;9.40;99.90;;;;;;4978490;28;20030;-72
2023/11/05 00:37:58;;;;;;;8.05;1.40;;;9.40;99.90;;;;;;4995301;28;20033;-72
2023/11/05 00:40:25;;;;;;;10.73;2.08;;;9.40;99.90;;;;;;4978418;28;20049;-72
2023/11/05 00:42:51;;;;;;;6.15;0.90;;;9.50;99.90;;;;;;4962670;28;20044;-72
2023/11/05 00:45:18;;;;;;;10.52;1.40;;;9.50;99.90;;;;;;4994431;28;20029;-73
2023/11/05 00:47:45;;;;;;;10.25;1.20;;;9.50;99.90;;;;;;5009041;28;20405;-72
2023/11/05 00:50:11;;;;;;;10.05;1.08;;;9.50;99.90;;;;;;4995062;28;20025;-73
2023/11/05 00:52:38;;;;;;;8.68;1.30;;;9.50;99.90;;;;;;4978063;28;20029;-72
2023/11/05 00:55:05;;;;;;;9.27;1.73;;;9.50;99.90;;;;;;4978048;28;20041;-73
2023/11/05 00:57:31;;;;;;;12.15;1.73;;;9.50;99.90;;;;;;4991710;28;20030;-72
2023/11/05 00:59:58;;;;;;;11.73;1.95;;;9.40;99.90;;;;;;4993823;28;20087;-72
2023/11/05 01:02:24;;;;;;;11.00;2.00;;;9.40;99.90;;;;;;4955967;28;20038;-73
2023/11/05 01:04:50;;;;;;;8.48;1.48;;;9.40;99.90;;;;;;4993121;28;20489;-72
2023/11/05 01:07:17;;;;;;;9.20;1.13;;;9.40;99.90;;;;;;4995052;28;20029;-72
2023/11/05 01:09:43;;;;;;;8.98;1.02;;;9.40;99.90;;;;;;5010497;28;20645;-73
2023/11/05 01:12:09;;;;;;;10.07;1.23;;;9.50;99.90;;;;;;4961554;28;20050;-72
2023/11/05 01:14:36;;;;;;;13.43;1.98;;;9.50;99.90;;;;;;4994015;28;20049;-72
2023/11/05 01:17:02;;;;;;;13.35;1.30;;;9.50;99.90;;;;;;4995330;28;20028;-73
2023/11/05 01:19:28;;;;;;;8.73;1.08;;;9.60;99.90;;;;;;4994932;28;20033;-72
2023/11/05 01:21:55;;;;;;;8.23;0.93;;;9.60;99.90;;;;;;4992985;28;20040;-73
2023/11/05 01:24:21;;;;;;;9.93;1.60;;;9.70;99.90;;;;;;4993837;28;20037;-72
2023/11/05 01:26:47;;;;;;;9.95;1.50;;;9.70;99.90;;;;;;4977169;28;20033;-72
2023/11/05 01:29:14;;;;;;;11.05;1.00;;;9.70;99.90;;;;;;4995890;28;20033;-72
2023/11/05 01:31:40;;;;;;;7.45;1.73;;;9.70;99.90;;;;;;4993821;28;20685;-72
2023/11/05 01:34:06;;;;;;;11.13;1.52;;;9.80;99.90;;;;;;4996268;28;21264;-72
2023/11/05 01:36:33;;;;;;;8.70;1.20;;;9.80;99.90;;;;;;4977685;28;20034;-73
2023/11/05 01:38:59;;;;;;;10.45;1.33;;;9.80;99.90;;;;;;4977850;28;20037;-73
2023/11/05 01:41:26;;;;;;;8.55;1.00;;;9.80;99.90;;;;;;4994059;28;20508;-72
2023/11/05 01:43:52;;;;;;;10.55;2.45;;;9.80;99.90;;;;;;5008392;28;20037;-72
2023/11/05 01:46:18;;;;;;;10.02;1.40;;;9.80;99.90;;;;;;4995597;28;20543;-72
2023/11/05 01:48:45;;;;;;;7.38;1.42;;;9.80;99.90;;;;;;4977716;28;20076;-73
2023/11/05 01:51:16;;;;;;;13.90;2.92;;;9.90;99.90;;;;;;4976272;28;20048;-71
2023/11/05 01:53:45;;;;;;;14.65;3.60;;;9.80;99.90;;;;;;4977495;28;20038;-73
2023/11/05 01:56:12;;;;;;;12.02;1.90;;;9.90;99.90;;;;;;4993878;28;20038;-74
2023/11/05 01:58:40;;;;;;;7.65;1.75;;;9.90;99.90;;;;;;4979205;28;20033;-74
2023/11/05 02:01:09;;;;;;;13.43;4.00;;;9.90;99.90;;;;;;5011322;28;20421;-74
2023/11/05 02:03:38;;;;;;;10.38;2.17;;;9.90;99.90;;;;;;4977417;28;20038;-73
2023/11/05 02:06:05;;;;;;;9.38;1.48;;;9.80;99.90;;;;;;4991993;28;20039;-74
2023/11/05 02:08:31;;;;;;;7.32;1.40;;;9.80;99.90;;;;;;4979228;28;20465;-73
2023/11/05 02:10:58;;;;;;;6.45;1.02;;;9.80;99.90;;;;;;4995478;28;20029;-74
2023/11/05 02:13:24;;;;;;;8.05;0.98;;;9.80;99.90;;;;;;4993999;28;20038;-73
2023/11/05 02:15:52;;;;;;;10.52;1.40;;;9.80;99.90;;;;;;4995503;28;20037;-73
2023/11/05 02:18:18;;;;;;;6.22;1.10;;;9.80;99.90;;;;;;4993086;28;20045;-72
2023/11/05 02:20:45;;;;;;;7.57;1.23;;;9.80;99.90;;;;;;4994199;28;20038;-72
2023/11/05 02:23:19;;;;;;;6.13;0.82;;;9.80;99.90;;;;;;4993815;28;20117;-72
2023/11/05 02:25:45;;;;;;;12.32;1.33;;;9.80;99.90;;;;;;4996052;28;20810;-72
2023/11/05 02:28:11;;;;;;;8.90;0.88;;;9.80;99.90;;;;;;4995917;28;20037;-72
2023/11/05 02:30:38;;;;;;;11.00;1.02;;;9.80;99.90;;;;;;4995376;28;20018;-72
2023/11/05 02:33:04;;;;;;;5.65;0.88;;;9.80;99.90;;;;;;4995026;28;20141;-72
2023/11/05 02:35:30;;;;;;;5.00;0.85;;;9.80;99.90;;;;;;4979950;28;20056;-72
2023/11/05 02:37:56;;;;;;;5.22;0.80;;;9.80;99.90;;;;;;4978686;28;20037;-71
2023/11/05 02:40:23;;;;;;;7.43;0.82;;;9.80;99.90;;;;;;4980696;28;20469;-72
2023/11/05 02:42:49;;;;;;;7.70;1.00;;;9.80;99.90;;;;;;4994713;28;20377;-72
2023/11/05 02:45:16;;;;;;;5.85;0.88;;;9.80;99.90;;;;;;4995340;28;20551;-72
2023/11/05 02:47:42;;;;;;;10.82;2.13;;;9.80;99.90;;;;;;4995293;28;20420;-72
2023/11/05 02:50:09;;;;;;;8.40;0.80;;;9.80;99.90;;;;;;4995735;28;20048;-72
2023/11/05 02:52:35;;;;;;;10.45;1.15;;;9.80;99.90;;;;;;4980764;28;20048;-72
2023/11/05 02:55:01;;;;;;;6.35;0.90;;;9.80;99.90;;;;;;5011119;28;20045;-71
2023/11/05 02:57:28;;;;;;;7.95;1.00;;;9.80;99.90;;;;;;4997484;28;20778;-71
2023/11/05 02:59:54;;;;;;;4.82;1.00;;;9.80;99.90;;;;;;4995806;28;20041;-71
2023/11/05 03:02:21;;;;;;;11.25;1.10;;;9.90;99.90;;;;;;4983475;28;20033;-72
2023/11/05 03:04:47;;;;;;;6.50;1.15;;;9.90;99.90;;;;;;4996022;28;20038;-72
2023/11/05 03:07:16;;;;;;;4.88;0.77;;;9.90;99.90;;;;;;4995614;28;20033;-71
2023/11/05 03:09:43;;;;;;;5.05;0.70;;;9.90;99.90;;;;;;4998413;28;20148;-72
2023/11/05 03:12:11;;;;;;;6.35;0.75;;;9.90;99.90;;;;;;4998462;28;20033;-72
2023/11/05 03:14:38;;;;;;;6.68;0.70;;;9.90;99.90;;;;;;4998405;28;20507;-71
2023/11/05 03:17:05;;;;;;;4.75;0.50;;;9.80;99.90;;;;;;4998699;28;20029;-72
2023/11/05 03:19:32;;;;;;;3.78;0.75;;;9.80;99.90;;;;;;4998743;28;20026;-71
2023/11/05 03:21:58;;;;;;;7.20;1.25;;;9.90;99.90;;;;;;4997520;28;20061;-72
2023/11/05 03:24:25;;;;;;;5.55;0.75;;;9.80;99.90;;;;;;4998642;28;20499;-72
2023/11/05 03:26:51;;;;;;;7.90;1.00;;;9.80;99.90;;;;;;4999621;28;20423;-72
2023/11/05 03:29:18;;;;;;;3.40;0.70;;;9.90;99.90;;;;;;5013740;28;20602;-71
2023/11/05 03:31:48;;;;;;;6.78;0.60;;;9.80;99.90;;;;;;4997437;28;20037;-72
2023/11/05 03:34:14;;;;;;;4.95;0.70;;;9.80;99.90;;;;;;5001217;28;20049;-71
2023/11/05 03:36:41;;;;;;;3.30;0.50;;;9.80;99.90;;;;;;5000124;28;20029;-72
2023/11/05 03:39:07;;;;;;;5.47;0.80;;;9.80;99.90;;;;;;4999695;28;20037;-72
2023/11/05 03:41:33;;;;;;;4.25;0.52;;;9.90;99.90;;;;;;5030458;28;20501;-72
2023/11/05 03:44:00;;;;;;;7.70;1.13;;;9.90;99.90;;;;;;4981254;28;20045;-72
2023/11/05 03:46:26;;;;;;;6.35;1.17;;;9.90;99.90;;;;;;4998301;28;20040;-71
2023/11/05 03:48:52;;;;;;;4.05;0.70;;;9.90;99.90;;;;;;4997304;28;20048;-71
2023/11/05 03:51:18;;;;;;;2.45;0.60;;;9.90;99.90;;;;;;4981585;28;20037;-72
2023/11/05 03:53:45;;;;;;;4.80;0.50;;;9.90;99.90;;;;;;4981019;28;20449;-71
2023/11/05 03:56:12;;;;;;;2.03;0.43;;;9.90;99.90;;;;;;4997221;28;20523;-71
2023/11/05 03:58:39;;;;;;;3.88;0.50;;;9.90;99.90;;;;;;4999400;28;20037;-72
2023/11/05 04:01:07;;;;;;;2.95;0.40;;;9.90;99.90;;;;;;4998162;28;20038;-72
2023/11/05 04:03:34;;;;;;;4.22;0.60;;;9.90;99.90;;;;;;4979542;28;20156;-72
2023/11/05 04:06:00;;;;;;;5.38;0.85;;;9.90;99.90;;;;;;4981466;28;20636;-71
2023/11/05 04:08:26;;;;;;;5.72;0.73;;;9.90;99.90;;;;;;4996762;28;20253;-71
2023/11/05 04:10:53;;;;;;;3.60;0.60;;;9.90;99.90;;;;;;4997607;28;20037;-72
2023/11/05 04:13:20;;;;;;;2.22;0.50;;;9.90;99.90;;;;;;4996698;28;20868;-72
2023/11/05 04:15:46;;;;;;;2.83;0.50;;;9.90;99.90;;;;;;4998234;28;20038;-72
2023/11/05 04:18:12;;;;;;;1.80;0.43;;;9.90;99.90;;;;;;4999126;28;20038;-71
2023/11/05 04:20:38;;;;;;;2.78;0.52;;;9.90;99.90;;;;;;4996332;28;20560;-72
2023/11/05 04:23:05;;;;;;;1.77;0.50;;;10.00;99.90;;;;;;4995590;28;20034;-72
2023/11/05 04:25:31;;;;;;;3.72;0.50;;;10.00;99.90;;;;;;4996205;28;20042;-72
2023/11/05 04:27:57;;;;;;;3.88;0.60;;;10.00;99.90;;;;;;4996665;28;20040;-72
2023/11/05 04:30:24;;;;;;;3.65;0.73;;;10.00;99.90;;;;;;4996242;28;20038;-72
2023/11/05 04:32:50;;;;;;;1.70;0.47;;;10.00;99.90;;;;;;4995859;28;20022;-72
2023/11/05 04:35:16;;;;;;;2.55;0.52;;;10.00;99.90;;;;;;4998100;28;20026;-72
2023/11/05 04:37:43;;;;;;;3.63;0.85;;;10.00;99.90;;;;;;4979483;28;20034;-71
2023/11/05 04:40:09;;;;;;;2.50;0.47;;;10.00;99.90;;;;;;4996212;28;20037;-72
2023/11/05 04:42:36;;;;;;;2.08;0.65;;;10.00;99.90;;;;;;4995294;28;20034;-72
2023/11/05 04:45:02;;;;;;;2.30;0.60;;;10.00;99.90;;;;;;4981499;28;20397;-72
2023/11/05 04:47:31;;;;;;;1.80;0.40;;;10.10;99.90;;;;;;4996092;28;20037;-72
2023/11/05 04:49:57;;;;;;;3.85;0.32;;;10.10;99.90;;;;;;4997011;28;20402;-72
2023/11/05 04:52:23;;;;;;;1.85;0.30;;;10.10;99.90;;;;;;4995998;28;20451;-72
2023/11/05 04:54:50;;;;;;;1.38;0.35;;;10.10;99.90;;;;;;4996835;28;20484;-72
2023/11/05 04:57:16;;;;;;;2.25;0.60;;;10.10;99.90;;;;;;4997623;28;20034;-72
2023/11/05 04:59:44;;;;;;;1.55;0.20;;;10.20;99.90;;;;;;4996718;28;20724;-72
2023/11/05 05:02:11;;;;;;;3.70;0.40;;;10.20;99.90;;;;;;4993614;28;20036;-72
2023/11/05 05:04:38;;;;;;;1.60;0.40;;;10.10;99.90;;;;;;4979100;28;20076;-72
2023/11/05 05:07:06;;;;;;;1.42;0.50;;;10.10;99.90;;;;;;4997154;28;20037;-72
2023/11/05 05:09:33;;;;;;;2.90;0.50;;;10.10;99.90;;;;;;4979814;28;20415;-71
2023/11/05 05:12:00;;;;;;;2.15;0.60;;;10.10;99.90;;;;;;4995487;28;20030;-71
2023/11/05 05:14:26;;;;;;;4.70;0.60;;;10.20;99.90;;;;;;4996732;28;20489;-73
2023/11/05 05:16:53;;;;;;;5.75;0.95;;;10.20;99.90;;;;;;5026893;28;20029;-72
2023/11/05 05:19:19;;;;;;;5.80;0.60;;;10.20;99.90;;;;;;4997971;28;20038;-71
2023/11/05 05:21:46;;;;;;;4.38;0.93;;;10.20;99.90;;;;;;4995000;28;20053;-73
2023/11/05 05:24:13;;;;;;;2.58;0.68;;;10.20;99.90;;;;;;4995894;28;20105;-71
2023/11/05 05:26:40;;;;;;;1.33;0.40;;;10.20;99.90;;;;;;4996412;28;20041;-72
2023/11/05 05:29:07;;;;;;;1.92;0.43;;;10.20;99.90;;;;;;5011656;28;20108;-72
2023/11/05 05:31:33;;;;;;;2.78;0.38;;;10.20;99.90;;;;;;4994026;28;22441;-71
2023/11/05 05:34:00;;;;;;;2.10;0.63;;;10.20;99.90;;;;;;5011126;28;20378;-71
2023/11/05 05:36:26;;;;;;;3.10;0.60;;;10.20;99.90;;;;;;4966093;28;20049;-72
2023/11/05 05:38:52;;;;;;;3.05;0.47;;;10.20;99.90;;;;;;4994853;28;20026;-72
2023/11/05 05:41:19;;;;;;;1.48;0.40;;;10.20;99.90;;;;;;4978703;28;20029;-74
2023/11/05 05:43:45;;;;;;;2.58;0.45;;;10.20;99.90;;;;;;4994494;28;20038;-72
2023/11/05 05:46:16;;;;;;;2.10;0.50;;;10.30;99.90;;;;;;4996051;28;20030;-72
2023/11/05 05:48:42;;;;;;;1.73;0.40;;;10.30;99.90;;;;;;4994875;28;20034;-73
2023/11/05 05:51:09;;;;;;;1.92;0.50;;;10.30;99.90;;;;;;4994267;28;20601;-73
2023/11/05 05:53:36;;;;;;;2.25;0.40;;;10.30;99.90;;;;;;5026631;28;20040;-72
2023/11/05 05:56:03;;;;;;;2.63;0.40;;;10.30;99.90;;;;;;4995865;28;20040;-73
2023/11/05 05:58:30;;;;;;;1.73;0.70;;;10.30;99.90;;;;;;4995647;28;20046;-72
2023/11/05 06:00:56;;;;;;;2.30;0.50;;;10.30;99.90;;;;;;4997045;28;20033;-72
2023/11/05 06:03:23;;;;;;;3.15;0.50;;;10.30;99.90;;;;;;4995235;28;20026;-72
2023/11/05 06:05:49;;;;;;;4.53;0.65;;;10.30;99.90;;;;;;4963322;28;20066;-72
2023/11/05 06:08:17;;;;;;;3.20;0.65;;;10.30;99.90;;;;;;4994800;28;20038;-72
2023/11/05 06:10:43;;;;;;;2.60;0.40;;;10.40;99.90;;;;;;4996308;28;20034;-72
2023/11/05 06:13:10;;;;;;;1.67;0.60;;;10.40;99.90;;;;;;4977801;28;20034;-72
2023/11/05 06:15:36;;;;;;;3.70;0.60;;;10.40;99.90;;;;;;4994661;28;20030;-72
2023/11/05 06:18:03;;;;;;;2.92;0.40;;;10.40;99.90;;;;;;4997617;28;20473;-72
2023/11/05 06:20:29;;;;;;;2.58;0.50;;;10.40;99.90;;;;;;4995792;28;20038;-73
2023/11/05 06:22:56;;;;;;;1.63;0.45;;;10.40;99.90;;;;;;4996938;28;20022;-72
2023/11/05 06:25:22;;;;;;;2.28;0.60;;;10.40;99.90;;;;;;4994164;28;20041;-72
2023/11/05 06:27:49;;;;;;;4.20;0.80;;;10.40;99.90;;;;;;4995608;28;20049;-72
2023/11/05 06:30:15;;;;;;;2.25;0.80;;;10.40;99.90;;;;;;4979264;28;20396;-73
2023/11/05 06:32:41;;;;;;;3.20;0.60;;;10.40;99.90;;;;;;4978163;28;20045;-72
2023/11/05 06:35:08;;;;;;;2.97;0.60;;;10.40;99.90;;;;;;4979001;28;20080;-72
2023/11/05 06:37:34;;;;;;;5.93;0.88;;;10.40;99.90;;;;;;4995494;28;20510;-72
2023/11/05 06:40:01;;;;;;;2.63;0.60;;;10.40;99.90;;;;;;4963624;28;20420;-72
2023/11/05 06:42:27;;;;;;;4.18;0.80;;;10.40;99.90;;;;;;4993950;28;20571;-73
2023/11/05 06:44:54;;;;;;;3.78;0.70;;;10.50;99.90;;;;;;4981731;28;20038;-72
2023/11/05 06:47:20;;;;;;;5.07;0.75;;;10.50;99.90;;;;;;4999591;28;20042;-71
2023/11/05 06:49:47;;;;;;;2.08;0.80;;;10.50;99.90;;;;;;4998880;28;20034;-73
2023/11/05 06:52:13;;;;;;;1.98;0.60;;;10.50;99.90;;;;;;5000099;28;20473;-72
2023/11/05 06:54:41;;;;;;;2.00;0.73;;;10.50;99.90;;;;;;4998540;28;20042;-72
2023/11/05 06:57:07;;;;;;;5.20;0.90;;;10.60;99.90;;;;;;4998176;28;20026;-73
2023/11/05 06:59:33;;;;;;;3.67;0.80;;;10.60;99.90;;;;;;4998682;28;20432;-73
2023/11/05 07:01:59;;;;;;;5.53;1.10;;;10.60;99.90;;;;;;4981378;28;20044;-72
2023/11/05 07:04:26;;;;;;;2.90;0.80;;;10.60;99.90;;;;;;4998516;28;20025;-73
2023/11/05 07:06:53;;;;;;;4.70;1.38;;;10.60;99.90;;;;;;4997867;28;20618;-72
2023/11/05 07:09:19;;;;;;;2.05;0.77;;;10.60;99.90;;;;;;4997602;28;20697;-73
2023/11/05 07:11:45;;;;;;;3.35;1.05;;;10.60;99.90;;;;;;4997380;28;20041;-72
2023/11/05 07:14:13;;;;;;;3.05;1.00;;;10.60;99.90;;;;;;4997198;28;20034;-72
2023/11/05 07:16:39;;;;;;;3.67;1.33;;;10.60;99.90;;;;;;4981601;28;20038;-72
2023/11/05 07:19:05;;;;;;;2.42;0.80;;;10.70;99.90;;;;;;4997524;28;20038;-72
2023/11/05 07:21:31;;;;;;;5.25;0.93;;;10.70;99.90;;;;;;4997146;28;20034;-72
2023/11/05 07:23:58;;;;;;;4.50;1.05;;;10.70;99.90;;;;;;4996192;28;20516;-72
2023/11/05 07:26:24;;;;;;;4.03;1.15;;;10.70;99.90;;;;;;4997666;28;20299;-73
2023/11/05 07:28:50;;;;;;;4.10;1.55;;;10.70;99.90;;;;;;4997223;28;20427;-72
2023/11/05 07:31:19;;;;;;;5.53;1.02;;;10.70;99.90;;;;;;4996931;28;20022;-72
2023/11/05 07:33:45;;;;;;;2.70;0.80;;;10.70;99.90;;;;;;4997116;28;20037;-72
2023/11/05 07:36:13;;;;;;;2.83;0.80;;;10.70;99.90;;;;;;4997072;28;20075;-72
2023/11/05 07:38:39;;;;;;;3.50;1.10;;;10.70;99.90;;;;;;4996884;28;22969;-72
2023/11/05 07:41:08;;;;;;;3.55;0.95;;;10.70;99.90;;;;;;4996693;28;20037;-73
2023/11/05 07:43:35;;;;;;;5.00;1.08;;;10.80;99.90;;;;;;4997068;28;20045;-72
2023/11/05 07:46:02;;;;;;;3.63;1.17;;;10.80;99.90;;;;;;4980842;28;20042;-72
2023/11/05 07:48:28;;;;;;;4.50;0.98;;;10.80;99.90;;;;;;4982995;28;20033;-72
2023/11/05 07:50:55;;;;;;;3.78;0.77;;;10.80;99.90;;;;;;4997941;28;20037;-72
2023/11/05 07:53:21;;;;;;;4.80;0.90;;;10.80;99.90;;;;;;4985000;28;20029;-72
2023/11/05 07:55:47;;;;;;;4.90;0.90;;;10.90;99.90;;;;;;4997524;28;20409;-72
2023/11/05 07:58:14;;;;;;;3.10;0.90;;;10.90;99.90;;;;;;4999296;28;20481;-72
2023/11/05 08:00:41;;;;;;;4.80;0.80;;;10.90;99.90;;;;;;4998485;28;20037;-72
2023/11/05 08:03:08;;;;;;;5.63;1.13;;;11.00;99.90;;;;;;4997434;28;20029;-72
2023/11/05 08:05:34;;;;;;;3.65;1.20;;;11.00;99.90;;;;;;4999514;28;20052;-72
2023/11/05 08:08:01;;;;;;;4.47;1.23;;;11.00;99.90;;;;;;5013601;28;20050;-72
2023/11/05 08:10:28;;;;;;;4.13;1.02;;;11.10;99.90;;;;;;4982164;28;20768;-72
2023/11/05 08:12:54;;;;;;;3.05;1.00;;;11.10;99.90;;;;;;5029655;28;20038;-71
2023/11/05 08:15:20;;;;;;;2.15;1.00;;;11.10;99.90;;;;;;4999748;28;20065;-72
2023/11/05 08:17:47;;;;;;;3.42;0.88;;;11.10;99.90;;;;;;4968827;28;20037;-73
2023/11/05 08:20:14;;;;;;;3.78;1.13;;;11.10;99.90;;;;;;4981756;28;20042;-72
2023/11/05 08:22:42;;;;;;;3.20;1.30;;;11.10;99.90;;;;;;4996922;28;20038;-72
2023/11/05 08:25:10;;;;;;;4.80;1.70;;;11.10;99.90;;;;;;4998703;28;20539;-72
2023/11/05 08:27:39;;;;;;;7.75;1.80;;;11.10;99.90;;;;;;4983716;28;20046;-72
2023/11/05 08:30:06;;;;;;;3.90;1.30;;;11.10;99.90;;;;;;4997734;28;20034;-72
2023/11/05 08:32:33;;;;;;;5.35;2.35;;;11.10;99.90;;;;;;4981430;28;20328;-71
2023/11/05 08:34:59;;;;;;;4.85;1.52;;;11.20;99.90;;;;;;4996308;28;20477;-72
2023/11/05 08:37:25;;;;;;;7.28;2.15;;;11.20;99.90;;;;;;4964164;28;20048;-72
2023/11/05 08:39:52;;;;;;;4.35;1.55;;;11.20;99.90;;;;;;4980769;28;20388;-72
2023/11/05 08:42:18;;;;;;;4.35;1.77;;;11.30;99.90;;;;;;4998248;28;20361;-72
2023/11/05 08:44:45;;;;;;;7.85;1.83;;;11.20;99.90;;;;;;4965353;28;20109;-71
2023/11/05 08:47:11;;;;;;;10.55;2.47;;;11.20;99.90;;;;;;4997611;28;20038;-72
2023/11/05 08:49:37;;;;;;;5.38;1.70;;;11.30;99.90;;;;;;4996591;28;20045;-72
2023/11/05 08:52:05;;;;;;;5.93;2.15;;;11.30;99.90;;;;;;4997399;28;20038;-72
2023/11/05 08:54:33;;;;;;;3.38;1.10;;;11.30;99.90;;;;;;4963585;28;20397;-72
2023/11/05 08:56:59;;;;;;;5.57;1.90;;;11.40;99.90;;;;;;4997151;28;20025;-73
2023/11/05 08:59:26;;;;;;;7.03;1.98;;;11.40;99.90;;;;;;4980036;28;20485;-72
2023/11/05 09:01:52;;;;;;;4.18;1.58;;;11.40;99.90;;;;;;4996471;28;20516;-72
2023/11/05 09:04:20;;;;;;;5.72;1.55;;;11.40;99.90;;;;;;4996399;28;20037;-72
2023/11/05 09:06:47;;;;;;;5.78;1.52;;;11.50;99.90;;;;;;5013258;28;20057;-72
2023/11/05 09:09:15;;;;;;;6.72;1.30;;;11.50;99.90;;;;;;4997623;28;20408;-73
2023/11/05 09:11:42;;;;;;;9.73;2.42;;;11.50;99.90;;;;;;5015581;28;20045;-72
2023/11/05 09:14:08;;;;;;;5.82;1.88;;;11.50;99.90;;;;;;4997684;28;20354;-72
2023/11/05 09:16:34;;;;;;;5.30;1.75;;;11.50;99.90;;;;;;4997443;28;20026;-72
2023/11/05 09:19:02;;;;;;;5.57;1.33;;;11.50;99.90;;;;;;4996456;28;20038;-72
2023/11/05 09:21:29;;;;;;;7.32;1.40;;;11.50;99.90;;;;;;4981504;28;20042;-72
2023/11/05 09:23:55;;;;;;;7.38;1.80;;;11.50;99.90;;;;;;4979001;28;20033;-72
2023/11/05 09:26:22;;;;;;;8.68;1.75;;;11.50;99.90;;;;;;4982456;28;20042;-72
2023/11/05 09:28:48;;;;;;;6.70;1.70;;;11.50;99.90;;;;;;4998142;28;20026;-71
2023/11/05 09:31:15;;;;;;;8.85;2.17;;;11.50;99.90;;;;;;4996945;28;20038;-72
2023/11/05 09:33:41;;;;;;;7.07;2.63;;;11.50;99.90;;;;;;4980023;28;20034;-72
2023/11/05 09:36:07;;;;;;;7.75;2.70;;;11.50;99.90;;;;;;5010783;28;20063;-72
2023/11/05 09:38:34;;;;;;;7.78;2.67;;;11.50;99.90;;;;;;4966028;28;20029;-72
2023/11/05 09:41:01;;;;;;;6.47;2.35;;;11.60;99.90;;;;;;4979381;28;20481;-72
2023/11/05 09:43:28;;;;;;;10.75;2.97;;;11.60;99.90;;;;;;4965007;28;20492;-71
2023/11/05 09:45:56;;;;;;;9.93;2.83;;;11.60;99.90;;;;;;4995882;28;20038;-72
2023/11/05 09:48:23;;;;;;;9.23;3.20;;;11.60;99.90;;;;;;4967631;28;20043;-71
2023/11/05 09:50:50;;;;;;;8.38;3.22;;;11.60;99.90;;;;;;4998170;28;20040;-72
2023/11/05 09:53:17;;;;;;;7.65;2.95;;;11.60;99.90;;;;;;4994858;28;20056;-71
2023/11/05 09:55:47;;;;;;;9.32;2.88;;;11.60;99.90;;;;;;4997950;28;20037;-72
2023/11/05 09:58:14;;;;;;;6.30;3.00;;;11.70;99.90;;;;;;4979826;28;20554;-72
2023/11/05 10:00:41;;;;;;;10.40;4.03;;;11.70;99.90;;;;;;5008029;28;20037;-72
2023/11/05 10:03:09;;;;;;;8.90;3.45;;;11.80;99.90;;;;;;4980326;28;20034;-72
2023/11/05 10:05:42;;;;;;;6.53;2.85;;;11.90;99.90;;;;;;4995032;28;20046;-72
2023/11/05 10:08:09;;;;;;;9.18;4.30;;;12.00;99.90;;;;;;5027029;28;20045;-72
2023/11/05 10:10:37;;;;;;;11.52;4.07;;;12.10;99.90;;;;;;5012739;28;20432;-72
2023/11/05 10:13:04;;;;;;;10.30;4.07;;;12.30;99.90;;;;;;4978986;28;21074;-72
2023/11/05 10:15:38;;;;;;;8.35;2.88;;;12.30;99.90;;;;;;4996991;28;20034;-73
2023/11/05 10:18:05;;;;;;;7.40;3.45;;;12.40;99.90;;;;;;4996734;28;20448;-72
2023/11/05 10:20:35;;;;;;;10.07;3.70;;;12.40;99.90;;;;;;4982929;28;20049;-72
2023/11/05 10:23:10;;;;;;;6.82;3.35;;;12.40;99.90;;;;;;4966576;28;20049;-71
2023/11/05 10:25:36;;;;;;;7.18;3.53;;;12.30;99.90;;;;;;4999787;28;20041;-72
2023/11/05 10:28:03;;;;;;;6.50;3.22;;;12.20;99.90;;;;;;4984347;28;20048;-71
2023/11/05 10:30:33;;;;;;;8.68;3.28;;;12.20;99.90;;;;;;5001393;28;20697;-71
2023/11/05 10:33:00;;;;;;;5.38;3.10;;;12.10;99.90;;;;;;4983494;28;20508;-71
2023/11/05 10:35:32;;;;;;;8.25;4.20;;;12.10;99.90;;;;;;4982504;28;20400;-71
2023/11/05 10:37:59;;;;;;;7.20;3.90;;;12.10;99.90;;;;;;5016861;28;20532;-72
2023/11/05 10:40:25;;;;;;;7.93;4.68;;;12.00;99.90;;;;;;5000403;28;20041;-72
2023/11/05 10:42:52;;;;;;;9.23;3.33;;;12.00;99.90;;;;;;4998456;28;20073;-72
2023/11/05 10:45:22;;;;;;;6.32;3.72;;;12.00;99.90;;;;;;5001068;28;20041;-71
2023/11/05 10:47:52;;;;;;;6.95;4.00;;;11.90;99.90;;;;;;4998404;28;20045;-71
2023/11/05 10:50:20;;;;;;;5.57;3.55;;;11.90;99.90;;;;;;5000639;28;20539;-72
2023/11/05 10:52:49;;;;;;;5.53;3.15;;;11.90;99.90;;;;;;4999835;28;20030;-72
2023/11/05 10:55:16;;;;;;;6.95;4.20;;;11.80;99.90;;;;;;5001804;28;20042;-71
2023/11/05 10:57:46;;;;;;;7.25;3.83;;;11.80;99.90;;;;;;5001627;28;20046;-71
2023/11/05 11:00:15;;;;;;;5.40;3.47;;;11.80;99.90;;;;;;4981525;28;20037;-71
2023/11/05 11:02:43;;;;;;;6.05;3.92;;;11.80;99.90;;;;;;4981880;28;20053;-71
2023/11/05 11:05:13;;;;;;;5.88;3.35;;;11.70;99.90;;;;;;4999041;28;20026;-71
2023/11/05 11:07:42;;;;;;;8.93;3.83;;;11.70;99.90;;;;;;4968560;28;20041;-71
2023/11/05 11:10:09;;;;;;;8.80;4.10;;;11.60;99.90;;;;;;4983473;28;20038;-72
2023/11/05 11:12:37;;;;;;;9.20;4.15;;;11.50;99.90;;;;;;4998996;28;20026;-72
2023/11/05 11:15:08;;;;;;;7.47;3.80;;;11.50;99.90;;;;;;4985407;28;20052;-71
2023/11/05 11:17:38;;;;;;;9.43;4.10;;;11.50;99.90;;;;;;5000703;28;20404;-71
2023/11/05 11:20:10;;;;;;;5.63;4.15;;;11.40;99.90;;;;;;4998838;28;20044;-71
2023/11/05 11:22:44;;;;;;;6.22;4.57;;;11.40;99.90;;;;;;4981684;28;20417;-71
2023/11/05 11:25:14;;;;;;;7.90;5.00;;;11.30;99.90;;;;;;4982837;28;20046;-71
2023/11/05 11:27:41;;;;;;;9.27;5.05;;;11.40;99.90;;;;;;5032164;28;20042;-71
2023/11/05 11:30:11;;;;;;;6.65;4.22;;;11.40;99.90;;;;;;4996959;28;20485;-71
2023/11/05 11:32:38;;;;;;;9.48;5.20;;;11.40;99.90;;;;;;4998169;28;20077;-71
2023/11/05 11:35:06;;;;;;;6.65;3.83;;;11.40;99.90;;;;;;4997340;28;20049;-71
2023/11/05 11:37:36;;;;;;;6.97;3.33;;;11.40;99.90;;;;;;4998190;28;20034;-70
2023/11/05 11:40:13;;;;;;;4.78;2.50;;;11.30;99.90;;;;;;4998776;28;20033;-71
2023/11/05 11:42:40;;;;;;;7.47;3.22;;;11.40;99.90;;;;;;5014425;28;20030;-71
2023/11/05 11:45:07;;;;;;;8.13;3.00;;;11.40;99.90;;;;;;4999140;28;20034;-70
2023/11/05 11:47:33;;;;;;;4.88;2.13;;;11.30;99.90;;;;;;4981989;28;20034;-71
2023/11/05 11:50:10;;;;;;;2.92;1.90;;;11.30;99.90;;;;;;4967630;28;20440;-71
2023/11/05 11:52:50;;;;;;;6.55;2.33;;;11.30;99.90;;;;;;4998826;28;20041;-71
2023/11/05 11:55:16;;;;;;;5.15;2.25;;;11.30;99.90;;;;;;5000096;28;20060;-71
2023/11/05 11:57:43;;;;;;;6.30;1.95;;;11.30;99.90;;;;;;4999791;28;20037;-71
2023/11/05 12:00:17;;;;;;;6.70;2.63;;;11.30;99.90;;;;;;4998842;28;20045;-71
2023/11/05 12:02:44;;;;;;;7.90;1.98;;;11.50;99.90;;;;;;4998233;28;20045;-71
2023/11/05 12:05:12;;;;;;;5.80;2.45;;;11.50;99.90;;;;;;4964905;28;20041;-72
2023/11/05 12:07:46;;;;;;;5.93;2.00;;;11.60;99.90;;;;;;5031311;28;20033;-71
2023/11/05 12:10:22;;;;;;;10.73;3.15;;;11.80;99.90;;;;;;4997791;28;20042;-71
2023/11/05 12:12:49;;;;;;;7.60;3.22;;;11.80;99.90;;;;;;4998846;28;20034;-73
2023/11/05 12:15:20;;;;;;;9.38;2.83;;;11.90;99.90;;;;;;4980163;28;20040;-72
2023/11/05 12:17:47;;;;;;;8.73;3.65;;;12.00;99.90;;;;;;4996944;28;20034;-72
2023/11/05 12:20:15;;;;;;;11.52;5.57;;;12.10;99.90;;;;;;4996930;28;20033;-72
2023/11/05 12:22:43;;;;;;;10.10;4.43;;;12.20;99.90;;;;;;4996973;28;20507;-73
2023/11/05 12:25:09;;;;;;;8.98;4.15;;;12.30;99.90;;;;;;5011473;28;20045;-72
2023/11/05 12:27:43;;;;;;;7.57;2.90;;;12.30;99.90;;;;;;4980159;28;20037;-73
2023/11/05 12:30:10;;;;;;;8.15;3.08;;;12.30;99.90;;;;;;4980771;28;20041;-71
2023/11/05 12:32:39;;;;;;;10.00;3.58;;;12.20;99.90;;;;;;4979430;28;20053;-72
2023/11/05 12:35:06;;;;;;;10.63;2.47;;;12.10;99.90;;;;;;4995900;28;20030;-71
2023/11/05 12:37:32;;;;;;;6.75;2.50;;;12.10;99.90;;;;;;4997859;28;20034;-73
2023/11/05 12:39:59;;;;;;;7.60;1.83;;;12.10;99.90;;;;;;4979608;28;20045;-73
2023/11/05 12:42:25;;;;;;;6.28;1.90;;;12.20;99.90;;;;;;4961693;28;20026;-73
2023/11/05 12:44:51;;;;;;;8.73;2.47;;;12.20;99.90;;;;;;4994951;28;20030;-72
2023/11/05 12:47:18;;;;;;;7.40;2.28;;;12.20;99.90;;;;;;4998261;28;20048;-71